PST,Max TemperatureF,Mean TemperatureF,Min TemperatureF,Max Dew PointF,MeanDew PointF,Min DewpointF,Max Humidity, Mean Humidity, Min Humidity, Max Sea Level PressureIn, Mean Sea Level PressureIn, Min Sea Level PressureIn, Max VisibilityMiles, Mean VisibilityMiles, Min VisibilityMiles, Max Wind SpeedMPH, Mean Wind SpeedMPH, Max Gust SpeedMPH,PrecipitationIn, CloudCover, Events, WindDirDegrees
2013-1-1,53,42,30,38,34,28,100,77,54,30.29,30.25,30.22,10,7,0,9,4,18,0.00,1,Fog,334
2013-1-2,54,41,28,37,33,27,100,75,50,30.27,30.21,30.15,10,8,2,7,2,21,0.00,0,,267
2013-1-3,54,41,27,40,34,28,100,77,54,30.27,30.23,30.18,7,4,0,8,2,15,0.00,0,Fog,262
2013-1-4,56,42,28,39,33,28,100,76,51,30.31,30.26,30.19,10,4,0,6,1,14,0.00,0,Fog-Rain,99
2013-1-5,50,41,32,45,40,32,100,87,74,30.28,30.18,30.08,4,1,0,10,3,17,0.73,5,Fog-Rain,56
2013-1-6,50,43,35,46,43,36,100,90,80,30.16,30.12,30.08,10,3,0,10,4,28,0.45,6,Fog-Rain,284
2013-1-7,51,44,36,45,40,36,100,87,74,30.26,30.20,30.14,10,6,0,14,4,17,0.01,2,Fog,97
2013-1-8,56,45,33,43,39,34,100,81,61,30.26,30.19,30.15,10,6,1,7,2,,0.00,0,,103
2013-1-9,50,43,36,46,41,34,100,80,60,30.17,30.04,29.97,10,5,0,25,5,32,T,5,Fog-Rain,226
2013-1-10,51,41,31,37,32,29,92,67,42,30.16,30.09,30.05,10,10,10,20,8,24,0.00,0,,292
2013-1-11,50,40,29,35,31,28,92,71,50,30.24,30.17,30.13,10,10,10,10,4,,0.00,1,,294
2013-1-12,48,38,27,32,27,23,96,67,38,30.25,30.19,30.16,10,10,10,10,4,,0.00,0,,286
2013-1-13,45,35,24,30,26,23,100,71,41,30.26,30.21,30.17,10,10,10,15,4,20,0.00,0,,291
2013-1-14,48,38,27,28,24,20,75,59,42,30.41,30.35,30.23,10,10,9,17,3,20,0.00,0,,298
2013-1-15,52,40,28,32,29,26,92,69,46,30.50,30.45,30.41,9,8,6,8,3,10,0.00,0,,115
2013-1-16,56,41,26,36,31,25,100,72,43,30.45,30.37,30.29,10,6,2,6,1,17,0.00,0,,101
2013-1-17,60,44,27,39,33,26,100,70,40,30.30,30.24,30.18,10,6,2,7,1,21,0.00,0,,194
2013-1-18,60,44,27,41,33,27,100,72,44,30.26,30.21,30.15,10,4,0,6,0,,0.00,1,Fog,257
2013-1-19,61,45,29,41,35,29,100,71,42,30.28,30.22,30.18,10,6,2,9,2,31,0.00,0,,295
2013-1-20,61,44,27,41,34,27,100,71,42,30.25,30.21,30.15,10,6,2,5,0,22,0.00,0,,245
2013-1-21,62,45,27,40,35,27,100,71,42,30.21,30.16,30.12,9,6,2,7,1,20,0.00,0,,95
2013-1-22,65,47,29,44,36,28,100,70,40,30.15,30.10,30.04,6,3,1,8,3,9,0.00,0,,144
2013-1-23,52,47,41,47,45,40,96,87,77,30.09,30.04,29.99,4,2,2,10,4,12,0.02,5,Rain,272
2013-1-24,52,50,47,52,49,46,100,100,100,30.19,30.14,30.08,4,2,2,12,6,13,0.03,8,Rain,288
2013-1-25,61,55,49,55,51,48,100,90,80,30.19,30.12,30.04,10,2,0,10,2,12,0.00,6,Fog,269
2013-1-26,60,52,43,52,46,38,100,76,51,30.04,30.00,29.95,10,5,0,24,4,29,0.01,5,Fog,256
2013-1-27,56,46,35,39,36,32,92,67,41,30.15,30.10,30.04,10,10,10,21,8,24,0.00,0,,299
2013-1-28,58,48,37,41,37,34,85,64,43,30.27,30.19,30.13,10,10,10,22,10,25,0.00,0,,293
2013-1-29,59,50,41,41,39,37,89,68,47,30.32,30.28,30.25,10,10,10,21,10,26,0.00,0,,296
2013-1-30,63,49,34,44,40,34,100,74,48,30.35,30.30,30.26,10,10,6,13,4,87,0.00,0,,135
2013-1-31,65,50,34,44,40,35,100,72,44,30.31,30.25,30.19,10,6,2,6,1,8,0.00,0,,261